Time;durP1;ratioP1;P1;durP2;ratioP2;P2;SDS_P1;SDS_P2;PMS_P1;PMS_P2;Temp;Humidity;BMP_temperature;BMP_pressure;BME280_temperature;BME280_humidity;BME280_pressure;Samples;Min_cycle;Max_cycle;Signal;HPM_P1;HPM_P2
2020/12/26 00:00:10;;;;;;;;;;;;;;;;;;5084745;28;19912;-70
2020/12/26 00:02:36;;;;;;;;;;;;;;;;;;5085556;28;19986;-70
2020/12/26 00:05:02;;;;;;;;;;;;;;;;;;5081140;28;19947;-69
2020/12/26 00:07:28;;;;;;;;;;;;;;;;;;5088383;28;20006;-68
2020/12/26 00:09:54;;;;;;;;;;;;;;;;;;5085467;28;19912;-69
2020/12/26 00:12:20;;;;;;;;;;;;;;;;;;5084100;28;19967;-69
2020/12/26 00:14:45;;;;;;;;;;;;;;;;;;5070223;28;20023;-69
2020/12/26 00:17:11;;;;;;;;;;;;;;;;;;5082624;28;20019;-69
2020/12/26 00:19:37;;;;;;;;;;;;;;;;;;5081871;28;20335;-69
2020/12/26 00:22:03;;;;;;;;;;;;;;;;;;5082812;28;19958;-70
2020/12/26 00:24:29;;;;;;;;;;;;;;;;;;5088893;28;19970;-71
2020/12/26 00:26:55;;;;;;;;;;;;;;;;;;5084846;28;19951;-69
2020/12/26 00:29:21;;;;;;;;;;;;;;;;;;5088275;28;20007;-69
2020/12/26 00:31:47;;;;;;;;;;;;;;;;;;5063723;28;20405;-70
2020/12/26 00:34:13;;;;;;;;;;;;;;;;;;5088918;28;19916;-70
2020/12/26 00:36:39;;;;;;;;;;;;;;;;;;5087059;28;19916;-70
2020/12/26 00:39:04;;;;;;;;;;;;;;;;;;5084761;28;19952;-69
2020/12/26 00:41:30;;;;;;;;;;;;;;;;;;5088551;28;20394;-71
2020/12/26 00:43:56;;;;;;;;;;;;;;;;;;5089652;28;19916;-70
2020/12/26 00:46:22;;;;;;;;;;;;;;;;;;5088763;28;20415;-69
2020/12/26 00:48:48;;;;;;;;;;;;;;;;;;5082086;28;19922;-69
2020/12/26 00:51:14;;;;;;;;;;;;;;;;;;5078926;28;20356;-69
2020/12/26 00:53:40;;;;;;;;;;;;;;;;;;5083846;28;19955;-68
2020/12/26 00:56:06;;;;;;;;;;;;;;;;;;5084413;28;19964;-69
2020/12/26 00:58:32;;;;;;;;;;;;;;;;;;5090898;28;19952;-70
2020/12/26 01:00:58;;;;;;;;;;;;;;;;;;5082906;28;20356;-71
2020/12/26 01:03:24;;;;;;;;;;;;;;;;;;5088774;28;19956;-70
2020/12/26 01:05:50;;;;;;;;;;;;;;;;;;5086621;28;20445;-69
2020/12/26 01:08:16;;;;;;;;;;;;;;;;;;5082831;28;20433;-70
2020/12/26 01:10:42;;;;;;;;;;;;;;;;;;5087294;28;19963;-68
2020/12/26 01:13:07;;;;;;;;;;;;;;;;;;5078705;28;19962;-69
2020/12/26 01:15:33;;;;;;;;;;;;;;;;;;5090337;28;20020;-68
2020/12/26 01:17:59;;;;;;;;;;;;;;;;;;5085491;28;19962;-68
2020/12/26 01:20:25;;;;;;;;;;;;;;;;;;5058857;28;19999;-68
2020/12/26 01:22:51;;;;;;;;;;;;;;;;;;5081415;28;19911;-68
2020/12/26 01:25:17;;;;;;;;;;;;;;;;;;5060472;28;19917;-68
2020/12/26 01:27:43;;;;;;;;;;;;;;;;;;5072620;28;19952;-69
2020/12/26 01:30:09;;;;;;;;;;;;;;;;;;5085270;28;19960;-68
2020/12/26 01:32:35;;;;;;;;;;;;;;;;;;5080257;28;20019;-68
2020/12/26 01:35:01;;;;;;;;;;;;;;;;;;5081858;28;20010;-68
2020/12/26 01:37:26;;;;;;;;;;;;;;;;;;5084995;28;20370;-68
2020/12/26 01:39:52;;;;;;;;;;;;;;;;;;5086412;28;20287;-68
2020/12/26 01:42:18;;;;;;;;;;;;;;;;;;5080630;28;19974;-67
2020/12/26 01:44:44;;;;;;;;;;;;;;;;;;5076929;28;19919;-68
2020/12/26 01:47:10;;;;;;;;;;;;;;;;;;5088015;28;19912;-68
2020/12/26 01:49:36;;;;;;;;;;;;;;;;;;5080518;28;20404;-68
2020/12/26 01:52:02;;;;;;;;;;;;;;;;;;5082404;28;19997;-70
2020/12/26 01:54:28;;;;;;;;;;;;;;;;;;5085105;28;20589;-67
2020/12/26 01:56:54;;;;;;;;;;;;;;;;;;5086352;28;20072;-68
2020/12/26 01:59:20;;;;;;;;;;;;;;;;;;5088310;28;19963;-67
2020/12/26 02:01:46;;;;;;;;;;;;;;;;;;5086762;28;20003;-68
2020/12/26 02:04:12;;;;;;;;;;;;;;;;;;5082425;28;19919;-68
2020/12/26 02:06:38;;;;;;;;;;;;;;;;;;5083670;28;20362;-68
2020/12/26 02:09:04;;;;;;;;;;;;;;;;;;5084831;28;19912;-68
2020/12/26 02:11:29;;;;;;;;;;;;;;;;;;5084413;28;19999;-69
2020/12/26 02:13:55;;;;;;;;;;;;;;;;;;5086003;28;20333;-69
2020/12/26 02:16:21;;;;;;;;;;;;;;;;;;5087121;28;19912;-67
2020/12/26 02:18:47;;;;;;;;;;;;;;;;;;5083041;28;19912;-67
2020/12/26 02:21:13;;;;;;;;;;;;;;;;;;5080986;28;20085;-68
2020/12/26 02:23:39;;;;;;;;;;;;;;;;;;5082309;28;20307;-68
2020/12/26 02:26:05;;;;;;;;;;;;;;;;;;5079089;28;20006;-67
2020/12/26 02:28:31;;;;;;;;;;;;;;;;;;5080308;28;19913;-68
2020/12/26 02:30:57;;;;;;;;;;;;;;;;;;5088869;28;20367;-67
2020/12/26 02:33:23;;;;;;;;;;;;;;;;;;5084983;28;19917;-69
2020/12/26 02:35:48;;;;;;;;;;;;;;;;;;5076375;28;19912;-69
2020/12/26 02:38:14;;;;;;;;;;;;;;;;;;5087558;28;20379;-68
2020/12/26 02:40:40;;;;;;;;;;;;;;;;;;5081338;28;19918;-68
2020/12/26 02:43:06;;;;;;;;;;;;;;;;;;5082959;28;19950;-68
2020/12/26 02:45:32;;;;;;;;;;;;;;;;;;5080888;28;19958;-68
2020/12/26 02:47:58;;;;;;;;;;;;;;;;;;5087719;28;20003;-67
2020/12/26 02:50:24;;;;;;;;;;;;;;;;;;5086794;28;19919;-68
2020/12/26 02:52:50;;;;;;;;;;;;;;;;;;5078887;28;19930;-69
2020/12/26 02:55:16;;;;;;;;;;;;;;;;;;5081812;28;19919;-68
2020/12/26 02:57:41;;;;;;;;;;;;;;;;;;5081780;28;19923;-68
2020/12/26 03:00:07;;;;;;;;;;;;;;;;;;5086489;28;19993;-68
2020/12/26 03:02:33;;;;;;;;;;;;;;;;;;5081679;28;20376;-69
2020/12/26 03:04:59;;;;;;;;;;;;;;;;;;5077948;28;19988;-68
2020/12/26 03:07:25;;;;;;;;;;;;;;;;;;5088377;28;19962;-69
2020/12/26 03:09:51;;;;;;;;;;;;;;;;;;5086711;28;20015;-68
2020/12/26 03:12:17;;;;;;;;;;;;;;;;;;5088732;28;20377;-70
2020/12/26 03:14:43;;;;;;;;;;;;;;;;;;5087343;28;20039;-68
2020/12/26 03:17:09;;;;;;;;;;;;;;;;;;5087351;28;20514;-68
2020/12/26 03:19:34;;;;;;;;;;;;;;;;;;5079027;28;19940;-67
2020/12/26 03:22:00;;;;;;;;;;;;;;;;;;5082635;28;19995;-68
2020/12/26 03:24:26;;;;;;;;;;;;;;;;;;5068450;28;20291;-68
2020/12/26 03:26:52;;;;;;;;;;;;;;;;;;5078010;28;19999;-69
2020/12/26 03:29:18;;;;;;;;;;;;;;;;;;5085099;28;19908;-69
2020/12/26 03:31:44;;;;;;;;;;;;;;;;;;5088309;28;19941;-68
2020/12/26 03:34:10;;;;;;;;;;;;;;;;;;5082922;28;19955;-67
2020/12/26 03:36:36;;;;;;;;;;;;;;;;;;5079355;28;20187;-68
2020/12/26 03:39:02;;;;;;;;;;;;;;;;;;5077404;28;20390;-67
2020/12/26 03:41:28;;;;;;;;;;;;;;;;;;5089441;28;19958;-69
2020/12/26 03:43:53;;;;;;;;;;;;;;;;;;5095486;28;19911;-69
2020/12/26 03:46:19;;;;;;;;;;;;;;;;;;5077586;28;19963;-68
2020/12/26 03:48:45;;;;;;;;;;;;;;;;;;5095045;28;19934;-68
2020/12/26 03:51:11;;;;;;;;;;;;;;;;;;5085185;28;19966;-68
2020/12/26 03:53:37;;;;;;;;;;;;;;;;;;5090854;28;20377;-69
2020/12/26 03:56:03;;;;;;;;;;;;;;;;;;5070821;28;19995;-68
2020/12/26 03:58:29;;;;;;;;;;;;;;;;;;5083898;28;19973;-69
2020/12/26 04:00:55;;;;;;;;;;;;;;;;;;5084598;28;19964;-68
2020/12/26 04:03:21;;;;;;;;;;;;;;;;;;5088490;28;19920;-68
2020/12/26 04:05:47;;;;;;;;;;;;;;;;;;5073294;28;20076;-69
2020/12/26 04:08:12;;;;;;;;;;;;;;;;;;5091496;28;20502;-69
2020/12/26 04:10:38;;;;;;;;;;;;;;;;;;5089346;28;19965;-69
2020/12/26 04:13:04;;;;;;;;;;;;;;;;;;5092520;28;19922;-70
2020/12/26 04:15:30;;;;;;;;;;;;;;;;;;5086039;28;20578;-68
2020/12/26 04:17:56;;;;;;;;;;;;;;;;;;5085115;28;19922;-69
2020/12/26 04:20:22;;;;;;;;;;;;;;;;;;5094103;28;19912;-69
2020/12/26 04:22:48;;;;;;;;;;;;;;;;;;5091146;28;19920;-69
2020/12/26 04:25:14;;;;;;;;;;;;;;;;;;5094404;28;20283;-69
2020/12/26 04:27:40;;;;;;;;;;;;;;;;;;5092958;28;19912;-69
2020/12/26 04:30:06;;;;;;;;;;;;;;;;;;5089526;28;19916;-69
2020/12/26 04:32:31;;;;;;;;;;;;;;;;;;5091739;28;19955;-69
2020/12/26 04:34:57;;;;;;;;;;;;;;;;;;5127602;22;19931;-67
2020/12/26 04:37:23;;;;;;;;;;;;;;;;;;5085974;28;19920;-67
2020/12/26 04:39:49;;;;;;;;;;;;;;;;;;5089946;28;19947;-68
2020/12/26 04:42:15;;;;;;;;;;;;;;;;;;5101770;28;19916;-67
2020/12/26 04:44:41;;;;;;;;;;;;;;;;;;5086067;28;19952;-67
2020/12/26 04:47:07;;;;;;;;;;;;;;;;;;5084888;28;20599;-68
2020/12/26 04:49:33;;;;;;;;;;;;;;;;;;5083272;28;19912;-68
2020/12/26 04:51:59;;;;;;;;;;;;;;;;;;5087974;28;19978;-67
2020/12/26 04:54:24;;;;;;;;;;;;;;;;;;5088521;28;20028;-68
2020/12/26 04:56:50;;;;;;;;;;;;;;;;;;5089652;28;20356;-68
2020/12/26 04:59:16;;;;;;;;;;;;;;;;;;5086499;28;19954;-68
2020/12/26 05:01:42;;;;;;;;;;;;;;;;;;5079312;28;20016;-68
2020/12/26 05:04:08;;;;;;;;;;;;;;;;;;5078541;28;19909;-68
2020/12/26 05:06:34;;;;;;;;;;;;;;;;;;5091573;28;19951;-66
2020/12/26 05:09:00;;;;;;;;;;;;;;;;;;5092243;28;19960;-67
2020/12/26 05:11:26;;;;;;;;;;;;;;;;;;5088196;28;19913;-66
2020/12/26 05:13:52;;;;;;;;;;;;;;;;;;5078925;28;19924;-67
2020/12/26 05:16:18;;;;;;;;;;;;;;;;;;5089677;28;20372;-66
2020/12/26 05:18:44;;;;;;;;;;;;;;;;;;5072884;28;19950;-66
2020/12/26 05:21:10;;;;;;;;;;;;;;;;;;5088672;28;20012;-67
2020/12/26 05:23:36;;;;;;;;;;;;;;;;;;5085464;28;19908;-66
2020/12/26 05:26:02;;;;;;;;;;;;;;;;;;5080535;28;19920;-67
2020/12/26 05:28:34;;;;;;;;;;;;;;;;;;5083402;28;20277;-66
2020/12/26 05:31:00;;;;;;;;;;;;;;;;;;5076889;28;19912;-66
2020/12/26 05:33:26;;;;;;;;;;;;;;;;;;5087784;28;19956;-67
2020/12/26 05:35:51;;;;;;;;;;;;;;;;;;5084907;28;19995;-66
2020/12/26 05:38:17;;;;;;;;;;;;;;;;;;5078176;28;19909;-67
2020/12/26 05:40:43;;;;;;;;;;;;;;;;;;5083566;28;19904;-67
2020/12/26 05:43:09;;;;;;;;;;;;;;;;;;5077285;28;19952;-66
2020/12/26 05:45:35;;;;;;;;;;;;;;;;;;5088252;28;19908;-68
2020/12/26 05:48:01;;;;;;;;;;;;;;;;;;5089365;28;19936;-67
2020/12/26 05:50:28;;;;;;;;;;;;;;;;;;5082685;28;19943;-67
2020/12/26 05:52:54;;;;;;;;;;;;;;;;;;5083978;28;19982;-68
2020/12/26 05:55:20;;;;;;;;;;;;;;;;;;5084729;28;20574;-67
2020/12/26 05:57:46;;;;;;;;;;;;;;;;;;5083008;28;19936;-67
2020/12/26 06:00:12;;;;;;;;;;;;;;;;;;5080026;28;19998;-67
2020/12/26 06:02:38;;;;;;;;;;;;;;;;;;5069120;28;20375;-68
2020/12/26 06:05:04;;;;;;;;;;;;;;;;;;5073034;28;19917;-68
2020/12/26 06:07:30;;;;;;;;;;;;;;;;;;5082105;28;19995;-68
2020/12/26 06:09:56;;;;;;;;;;;;;;;;;;5081511;28;20287;-68
2020/12/26 06:12:22;;;;;;;;;;;;;;;;;;5071699;28;19971;-68
2020/12/26 06:14:48;;;;;;;;;;;;;;;;;;5082699;28;19958;-68
2020/12/26 06:17:14;;;;;;;;;;;;;;;;;;5080587;28;19954;-66
2020/12/26 06:19:40;;;;;;;;;;;;;;;;;;5077121;28;19966;-67
2020/12/26 06:22:06;;;;;;;;;;;;;;;;;;5082947;28;19993;-67
2020/12/26 06:24:31;;;;;;;;;;;;;;;;;;5090137;28;19916;-67
2020/12/26 06:26:57;;;;;;;;;;;;;;;;;;5083328;28;19912;-68
2020/12/26 06:29:23;;;;;;;;;;;;;;;;;;5081367;28;20375;-68
2020/12/26 06:31:49;;;;;;;;;;;;;;;;;;5084143;28;19999;-68
2020/12/26 06:34:15;;;;;;;;;;;;;;;;;;5086461;28;19922;-67
2020/12/26 06:36:41;;;;;;;;;;;;;;;;;;5088249;28;19922;-68
2020/12/26 06:39:07;;;;;;;;;;;;;;;;;;5082736;28;19908;-68
2020/12/26 06:41:33;;;;;;;;;;;;;;;;;;5089112;28;19947;-68
2020/12/26 06:43:59;;;;;;;;;;;;;;;;;;5081720;28;20007;-68
2020/12/26 06:46:24;;;;;;;;;;;;;;;;;;5080210;28;19913;-68
2020/12/26 06:48:50;;;;;;;;;;;;;;;;;;5081133;28;19912;-67
2020/12/26 06:51:16;;;;;;;;;;;;;;;;;;5073485;28;19913;-67
2020/12/26 06:53:42;;;;;;;;;;;;;;;;;;5081776;28;19922;-67
2020/12/26 06:56:08;;;;;;;;;;;;;;;;;;5081360;28;19909;-68
2020/12/26 06:58:34;;;;;;;;;;;;;;;;;;5073174;28;19923;-68
2020/12/26 07:01:00;;;;;;;;;;;;;;;;;;5078971;28;19912;-68
2020/12/26 07:03:28;;;;;;;;;;;;;;;;;;5078338;28;19927;-67
2020/12/26 07:05:54;;;;;;;;;;;;;;;;;;5082626;28;19908;-68
2020/12/26 07:08:20;;;;;;;;;;;;;;;;;;5077998;28;19947;-68
2020/12/26 07:10:46;;;;;;;;;;;;;;;;;;5077991;28;20413;-67
2020/12/26 07:13:12;;;;;;;;;;;;;;;;;;5083627;28;20049;-68
2020/12/26 07:15:38;;;;;;;;;;;;;;;;;;5090015;28;20478;-68
2020/12/26 07:18:04;;;;;;;;;;;;;;;;;;5085756;28;19950;-68
2020/12/26 07:20:31;;;;;;;;;;;;;;;;;;5077671;28;21540;-68
2020/12/26 07:22:57;;;;;;;;;;;;;;;;;;5084482;28;20381;-69
2020/12/26 07:25:23;;;;;;;;;;;;;;;;;;5084512;28;19912;-67
2020/12/26 07:27:48;;;;;;;;;;;;;;;;;;5086116;28;19916;-68
2020/12/26 07:30:14;;;;;;;;;;;;;;;;;;5080497;28;20263;-68
2020/12/26 07:32:40;;;;;;;;;;;;;;;;;;5081961;28;19916;-68
2020/12/26 07:35:06;;;;;;;;;;;;;;;;;;5085488;28;19923;-67
2020/12/26 07:37:32;;;;;;;;;;;;;;;;;;5093483;28;19955;-67
2020/12/26 07:39:58;;;;;;;;;;;;;;;;;;5092052;28;19995;-67
2020/12/26 07:42:25;;;;;;;;;;;;;;;;;;5084983;28;19912;-67
2020/12/26 07:44:50;;;;;;;;;;;;;;;;;;5079497;28;19916;-67
2020/12/26 07:47:16;;;;;;;;;;;;;;;;;;5075851;28;20001;-66
2020/12/26 07:49:42;;;;;;;;;;;;;;;;;;5084025;28;19940;-67
2020/12/26 07:52:08;;;;;;;;;;;;;;;;;;5091441;28;19956;-67
2020/12/26 07:54:34;;;;;;;;;;;;;;;;;;5091331;28;19932;-66
2020/12/26 07:57:00;;;;;;;;;;;;;;;;;;5084247;28;19963;-67
2020/12/26 07:59:26;;;;;;;;;;;;;;;;;;5084680;28;19948;-67
2020/12/26 08:01:52;;;;;;;;;;;;;;;;;;5078972;28;19966;-69
2020/12/26 08:04:18;;;;;;;;;;;;;;;;;;5086811;28;20382;-67
2020/12/26 08:06:44;;;;;;;;;;;;;;;;;;5084123;28;20291;-67
2020/12/26 08:09:10;;;;;;;;;;;;;;;;;;5086541;28;20002;-67
2020/12/26 08:11:35;;;;;;;;;;;;;;;;;;5086715;28;20376;-68
2020/12/26 08:14:01;;;;;;;;;;;;;;;;;;5072893;28;20115;-69
2020/12/26 08:16:27;;;;;;;;;;;;;;;;;;5083218;28;20006;-69
2020/12/26 08:18:53;;;;;;;;;;;;;;;;;;5083978;28;19944;-69
2020/12/26 08:21:19;;;;;;;;;;;;;;;;;;5083240;28;19959;-69
2020/12/26 08:23:45;;;;;;;;;;;;;;;;;;5089604;28;20343;-69
2020/12/26 08:26:11;;;;;;;;;;;;;;;;;;5086587;28;20046;-69
2020/12/26 08:28:37;;;;;;;;;;;;;;;;;;5093437;28;19908;-70
2020/12/26 08:31:03;;;;;;;;;;;;;;;;;;5097233;28;20331;-70
2020/12/26 08:33:29;;;;;;;;;;;;;;;;;;5099020;28;19920;-68
2020/12/26 08:35:55;;;;;;;;;;;;;;;;;;5087865;28;19969;-69
2020/12/26 08:38:21;;;;;;;;;;;;;;;;;;5087734;28;19920;-69
2020/12/26 08:40:47;;;;;;;;;;;;;;;;;;5082492;28;19920;-68
2020/12/26 08:43:13;;;;;;;;;;;;;;;;;;5085179;28;19997;-69
2020/12/26 08:45:39;;;;;;;;;;;;;;;;;;5079818;28;19995;-69
2020/12/26 08:48:05;;;;;;;;;;;;;;;;;;5081124;28;19967;-69
2020/12/26 08:50:31;;;;;;;;;;;;;;;;;;5080406;28;20403;-69
2020/12/26 08:52:57;;;;;;;;;;;;;;;;;;5089828;28;20019;-69
2020/12/26 08:55:23;;;;;;;;;;;;;;;;;;5086942;28;19973;-68
2020/12/26 08:57:48;;;;;;;;;;;;;;;;;;5083447;28;19912;-69
2020/12/26 09:00:15;;;;;;;;;;;;;;;;;;5087664;28;19919;-69
2020/12/26 09:02:40;;;;;;;;;;;;;;;;;;5083493;28;19965;-69
2020/12/26 09:05:06;;;;;;;;;;;;;;;;;;5080601;28;19909;-69
2020/12/26 09:07:32;;;;;;;;;;;;;;;;;;5082925;28;20592;-69
2020/12/26 09:09:58;;;;;;;;;;;;;;;;;;5074380;28;19956;-67
2020/12/26 09:12:24;;;;;;;;;;;;;;;;;;5084332;28;19989;-69
2020/12/26 09:14:50;;;;;;;;;;;;;;;;;;5076059;28;20051;-67
2020/12/26 09:17:16;;;;;;;;;;;;;;;;;;5080561;28;20390;-68
2020/12/26 09:19:42;;;;;;;;;;;;;;;;;;5073671;28;19915;-68
2020/12/26 09:22:08;;;;;;;;;;;;;;;;;;5076802;28;19918;-68
2020/12/26 09:24:34;;;;;;;;;;;;;;;;;;5078420;28;20420;-68
2020/12/26 09:26:59;;;;;;;;;;;;;;;;;;5083781;28;19951;-68
2020/12/26 09:29:25;;;;;;;;;;;;;;;;;;5080571;28;20388;-67
2020/12/26 09:31:51;;;;;;;;;;;;;;;;;;5086486;28;20003;-67
2020/12/26 09:34:17;;;;;;;;;;;;;;;;;;5071211;28;19958;-68
2020/12/26 09:36:43;;;;;;;;;;;;;;;;;;5084138;28;19958;-68
2020/12/26 09:39:09;;;;;;;;;;;;;;;;;;5079217;28;19954;-68
2020/12/26 09:41:35;;;;;;;;;;;;;;;;;;5084775;28;19978;-68
2020/12/26 09:44:01;;;;;;;;;;;;;;;;;;5086658;28;20284;-69
2020/12/26 09:46:27;;;;;;;;;;;;;;;;;;5079786;28;19914;-68
2020/12/26 09:48:53;;;;;;;;;;;;;;;;;;5078024;28;19919;-67
2020/12/26 09:51:19;;;;;;;;;;;;;;;;;;5079120;28;19942;-69
2020/12/26 09:53:44;;;;;;;;;;;;;;;;;;5081922;28;19922;-69
2020/12/26 09:56:10;;;;;;;;;;;;;;;;;;5080821;28;19999;-69
2020/12/26 09:58:36;;;;;;;;;;;;;;;;;;5075744;28;19940;-70
2020/12/26 10:01:02;;;;;;;;;;;;;;;;;;5077904;28;19919;-68
2020/12/26 10:03:28;;;;;;;;;;;;;;;;;;5078138;28;19919;-69
2020/12/26 10:05:54;;;;;;;;;;;;;;;;;;5077838;28;20386;-69
2020/12/26 10:08:20;;;;;;;;;;;;;;;;;;5088734;28;20014;-70
2020/12/26 10:10:46;;;;;;;;;;;;;;;;;;5083390;28;20429;-68
2020/12/26 10:13:12;;;;;;;;;;;;;;;;;;5079256;28;19983;-69
2020/12/26 10:15:38;;;;;;;;;;;;;;;;;;5079649;28;20011;-69
2020/12/26 10:18:04;;;;;;;;;;;;;;;;;;5079162;28;20023;-69
2020/12/26 10:20:30;;;;;;;;;;;;;;;;;;5078769;28;19912;-69
2020/12/26 10:22:55;;;;;;;;;;;;;;;;;;5077462;28;20335;-68
2020/12/26 10:25:24;;;;;;;;;;;;;;;;;;5072833;28;19913;-68
2020/12/26 10:27:50;;;;;;;;;;;;;;;;;;5074247;28;19915;-67
2020/12/26 10:30:17;;;;;;;;;;;;;;;;;;5083433;28;19957;-68
2020/12/26 10:32:43;;;;;;;;;;;;;;;;;;5079185;28;19912;-68
2020/12/26 10:35:09;;;;;;;;;;;;;;;;;;5094419;23;19972;-73
2020/12/26 10:37:35;;;;;;;;;;;;;;;;;;5062635;28;19927;-73
2020/12/26 10:40:01;;;;;;;;;;;;;;;;;;5065602;28;19968;-73
2020/12/26 10:42:30;;;;;;;;;;;;;;;;;;5074976;28;19979;-73
2020/12/26 10:44:56;;;;;;;;;;;;;;;;;;5074267;28;19908;-73
2020/12/26 10:47:22;;;;;;;;;;;;;;;;;;5070466;28;19913;-73
2020/12/26 10:49:48;;;;;;;;;;;;;;;;;;5065914;28;20262;-73
2020/12/26 10:52:14;;;;;;;;;;;;;;;;;;5085295;28;19960;-73
2020/12/26 10:54:39;;;;;;;;;;;;;;;;;;5074630;28;19931;-73
2020/12/26 10:57:05;;;;;;;;;;;;;;;;;;5077583;28;20293;-73
2020/12/26 10:59:31;;;;;;;;;;;;;;;;;;5079475;28;19927;-73
2020/12/26 11:01:57;;;;;;;;;;;;;;;;;;5075050;28;19995;-73
2020/12/26 11:04:23;;;;;;;;;;;;;;;;;;5083007;28;19944;-73
2020/12/26 11:06:49;;;;;;;;;;;;;;;;;;5072140;28;19962;-73
2020/12/26 11:09:15;;;;;;;;;;;;;;;;;;5076870;28;19908;-73
2020/12/26 11:11:41;;;;;;;;;;;;;;;;;;5075320;28;19914;-73
2020/12/26 11:14:07;;;;;;;;;;;;;;;;;;5074329;28;19960;-73
2020/12/26 11:16:33;;;;;;;;;;;;;;;;;;5074465;28;19908;-73
2020/12/26 11:18:59;;;;;;;;;;;;;;;;;;5073819;28;19951;-72
2020/12/26 11:21:25;;;;;;;;;;;;;;;;;;5074940;28;20405;-73
2020/12/26 11:23:51;;;;;;;;;;;;;;;;;;5077907;28;19918;-72
2020/12/26 11:26:17;;;;;;;;;;;;;;;;;;5071334;28;19946;-73
2020/12/26 11:28:43;;;;;;;;;;;;;;;;;;5068946;28;20340;-74
2020/12/26 11:31:09;;;;;;;;;;;;;;;;;;5072919;28;19917;-72
2020/12/26 11:33:35;;;;;;;;;;;;;;;;;;5064447;28;20769;-72
2020/12/26 11:36:01;;;;;;;;;;;;;;;;;;5074058;28;19928;-73
2020/12/26 11:38:27;;;;;;;;;;;;;;;;;;5077860;28;19917;-73
2020/12/26 11:40:53;;;;;;;;;;;;;;;;;;5071415;28;20427;-73
2020/12/26 11:43:19;;;;;;;;;;;;;;;;;;5072852;28;19972;-73
2020/12/26 11:45:45;;;;;;;;;;;;;;;;;;5062402;28;19963;-73
2020/12/26 11:48:11;;;;;;;;;;;;;;;;;;5058439;28;19916;-73
2020/12/26 11:50:37;;;;;;;;;;;;;;;;;;5073347;28;19908;-73
2020/12/26 11:53:03;;;;;;;;;;;;;;;;;;5072657;28;19961;-73
2020/12/26 11:55:32;;;;;;;;;;;;;;;;;;5074603;28;19908;-73
2020/12/26 11:57:58;;;;;;;;;;;;;;;;;;5070156;28;19966;-73
2020/12/26 12:00:25;;;;;;;;;;;;;;;;;;5064646;28;20364;-73
2020/12/26 12:02:51;;;;;;;;;;;;;;;;;;5069989;28;19916;-72
2020/12/26 12:05:19;;;;;;;;;;;;;;;;;;5073498;28;19923;-72
2020/12/26 12:07:45;;;;;;;;;;;;;;;;;;5072984;28;19912;-73
2020/12/26 12:10:11;;;;;;;;;;;;;;;;;;5070937;28;19920;-73
2020/12/26 12:12:37;;;;;;;;;;;;;;;;;;5064392;28;19916;-73
2020/12/26 12:15:03;;;;;;;;;;;;;;;;;;5077693;28;20435;-73
2020/12/26 12:17:29;;;;;;;;;;;;;;;;;;5079742;28;19991;-73
2020/12/26 12:19:57;;;;;;;;;;;;;;;;;;5080855;28;19913;-73
2020/12/26 12:22:23;;;;;;;;;;;;;;;;;;5084129;28;19912;-73
2020/12/26 12:24:49;;;;;;;;;;;;;;;;;;5072166;28;19915;-73
2020/12/26 12:27:15;;;;;;;;;;;;;;;;;;5077530;28;20362;-74
2020/12/26 12:29:44;;;;;;;;;;;;;;;;;;5073671;28;19939;-73
2020/12/26 12:32:10;;;;;;;;;;;;;;;;;;5074765;28;19912;-74
2020/12/26 12:34:36;;;;;;;;;;;;;;;;;;5081082;28;20386;-74
2020/12/26 12:37:02;;;;;;;;;;;;;;;;;;5082583;28;19920;-74
2020/12/26 12:39:28;;;;;;;;;;;;;;;;;;5079317;28;19912;-74
2020/12/26 12:41:54;;;;;;;;;;;;;;;;;;5078331;28;19912;-73
2020/12/26 12:44:20;;;;;;;;;;;;;;;;;;5070746;28;19908;-73
2020/12/26 12:46:46;;;;;;;;;;;;;;;;;;5080004;28;19919;-73
2020/12/26 12:49:12;;;;;;;;;;;;;;;;;;5080098;28;19912;-73
2020/12/26 12:51:38;;;;;;;;;;;;;;;;;;5075508;28;19946;-74
2020/12/26 12:54:10;;;;;;;;;;;;;;;;;;5077122;28;19916;-73
2020/12/26 12:56:36;;;;;;;;;;;;;;;;;;5075788;28;19962;-74
2020/12/26 12:59:02;;;;;;;;;;;;;;;;;;5079064;28;19956;-73
2020/12/26 13:01:28;;;;;;;;;;;;;;;;;;5063293;28;19908;-73
2020/12/26 13:03:54;;;;;;;;;;;;;;;;;;5064259;28;20434;-73
2020/12/26 13:06:20;;;;;;;;;;;;;;;;;;5072183;28;19909;-73
2020/12/26 13:08:46;;;;;;;;;;;;;;;;;;5069857;28;20290;-73
2020/12/26 13:11:12;;;;;;;;;;;;;;;;;;5063702;28;20362;-73
2020/12/26 13:13:38;;;;;;;;;;;;;;;;;;5069249;28;20370;-74
2020/12/26 13:16:04;;;;;;;;;;;;;;;;;;5058430;28;19913;-72
2020/12/26 13:18:30;;;;;;;;;;;;;;;;;;5069167;28;19966;-73
2020/12/26 13:20:56;;;;;;;;;;;;;;;;;;5069538;28;19913;-73
2020/12/26 13:23:22;;;;;;;;;;;;;;;;;;5068885;28;19909;-74
2020/12/26 13:25:48;;;;;;;;;;;;;;;;;;5070326;28;19919;-73
2020/12/26 13:28:14;;;;;;;;;;;;;;;;;;5070785;28;19920;-74
2020/12/26 13:30:40;;;;;;;;;;;;;;;;;;5073317;28;19908;-73
2020/12/26 13:33:06;;;;;;;;;;;;;;;;;;5062789;28;19971;-73
2020/12/26 13:35:32;;;;;;;;;;;;;;;;;;5072187;28;19916;-73
2020/12/26 13:37:58;;;;;;;;;;;;;;;;;;5070036;28;19959;-73
2020/12/26 13:40:24;;;;;;;;;;;;;;;;;;5064945;28;20363;-73
2020/12/26 13:42:50;;;;;;;;;;;;;;;;;;5069167;28;19923;-73
2020/12/26 13:45:15;;;;;;;;;;;;;;;;;;5066411;28;19932;-73
2020/12/26 13:47:41;;;;;;;;;;;;;;;;;;5068532;28;20453;-73
2020/12/26 13:50:07;;;;;;;;;;;;;;;;;;5070498;28;20337;-75
2020/12/26 13:52:33;;;;;;;;;;;;;;;;;;5078413;28;19952;-74
2020/12/26 13:54:59;;;;;;;;;;;;;;;;;;5072803;28;19916;-74
2020/12/26 13:57:25;;;;;;;;;;;;;;;;;;5070589;28;20011;-75
2020/12/26 13:59:51;;;;;;;;;;;;;;;;;;5072064;28;19928;-75
2020/12/26 14:02:17;;;;;;;;;;;;;;;;;;5072177;28;19943;-74
2020/12/26 14:04:43;;;;;;;;;;;;;;;;;;5070397;28;19912;-74
2020/12/26 14:07:09;;;;;;;;;;;;;;;;;;5076009;28;20270;-74
2020/12/26 14:09:35;;;;;;;;;;;;;;;;;;5072648;28;19916;-75
2020/12/26 14:12:01;;;;;;;;;;;;;;;;;;5071872;28;20270;-75
2020/12/26 14:14:27;;;;;;;;;;;;;;;;;;5072000;28;19913;-75
2020/12/26 14:16:53;;;;;;;;;;;;;;;;;;5071524;28;19915;-75
2020/12/26 14:19:19;;;;;;;;;;;;;;;;;;5071570;28;19908;-75
2020/12/26 14:21:45;;;;;;;;;;;;;;;;;;5072553;28;19912;-73
2020/12/26 14:24:11;;;;;;;;;;;;;;;;;;5073478;28;19908;-75
2020/12/26 14:26:37;;;;;;;;;;;;;;;;;;5073064;28;19952;-74
2020/12/26 14:29:03;;;;;;;;;;;;;;;;;;5071029;28;19909;-75
2020/12/26 14:31:29;;;;;;;;;;;;;;;;;;5070372;28;20297;-75
2020/12/26 14:33:55;;;;;;;;;;;;;;;;;;5063303;28;19931;-74
2020/12/26 14:36:21;;;;;;;;;;;;;;;;;;5070280;28;19916;-74
2020/12/26 14:38:47;;;;;;;;;;;;;;;;;;5071040;28;19912;-74
2020/12/26 14:41:13;;;;;;;;;;;;;;;;;;5070683;28;19913;-74
2020/12/26 14:43:42;;;;;;;;;;;;;;;;;;5059224;28;19909;-73
2020/12/26 14:46:08;;;;;;;;;;;;;;;;;;5068491;28;19939;-74
2020/12/26 14:48:34;;;;;;;;;;;;;;;;;;5045724;28;19912;-73
2020/12/26 14:51:00;;;;;;;;;;;;;;;;;;5054291;28;19958;-74
2020/12/26 14:53:26;;;;;;;;;;;;;;;;;;5064658;28;20360;-74
2020/12/26 14:55:52;;;;;;;;;;;;;;;;;;5064722;28;19915;-74
2020/12/26 14:58:18;;;;;;;;;;;;;;;;;;5070441;28;19962;-74
2020/12/26 15:00:43;;;;;;;;;;;;;;;;;;5072513;28;19938;-74
2020/12/26 15:03:09;;;;;;;;;;;;;;;;;;5068824;28;19943;-74
2020/12/26 15:05:35;;;;;;;;;;;;;;;;;;5062980;28;19935;-75
2020/12/26 15:08:01;;;;;;;;;;;;;;;;;;5079454;28;19921;-76
2020/12/26 15:10:27;;;;;;;;;;;;;;;;;;5070180;28;19912;-74
2020/12/26 15:12:53;;;;;;;;;;;;;;;;;;5071308;28;19967;-74
2020/12/26 15:15:19;;;;;;;;;;;;;;;;;;5070222;28;20022;-73
2020/12/26 15:17:45;;;;;;;;;;;;;;;;;;5069459;28;19912;-73
2020/12/26 15:20:11;;;;;;;;;;;;;;;;;;5074557;28;19980;-73
2020/12/26 15:22:40;;;;;;;;;;;;;;;;;;5068712;28;19918;-74
2020/12/26 15:25:06;;;;;;;;;;;;;;;;;;5071788;28;19942;-74
2020/12/26 15:27:32;;;;;;;;;;;;;;;;;;5069138;28;20329;-74
2020/12/26 15:29:58;;;;;;;;;;;;;;;;;;5052845;28;19975;-75
2020/12/26 15:32:24;;;;;;;;;;;;;;;;;;5073039;28;19921;-73
2020/12/26 15:34:50;;;;;;;;;;;;;;;;;;5061340;28;19912;-74
2020/12/26 15:37:16;;;;;;;;;;;;;;;;;;5068348;28;19967;-73
2020/12/26 15:39:42;;;;;;;;;;;;;;;;;;5070230;28;19991;-73
2020/12/26 15:42:08;;;;;;;;;;;;;;;;;;5064521;28;20004;-75
2020/12/26 15:44:34;;;;;;;;;;;;;;;;;;5072837;28;20005;-73
2020/12/26 15:47:00;;;;;;;;;;;;;;;;;;5073926;28;19919;-75
2020/12/26 15:49:26;;;;;;;;;;;;;;;;;;5072495;28;19962;-74
2020/12/26 15:51:52;;;;;;;;;;;;;;;;;;5072936;28;19912;-75
2020/12/26 15:54:18;;;;;;;;;;;;;;;;;;5063480;28;19967;-73
2020/12/26 15:56:44;;;;;;;;;;;;;;;;;;5073555;28;19909;-73
2020/12/26 15:59:10;;;;;;;;;;;;;;;;;;5071236;28;19965;-74
2020/12/26 16:01:36;;;;;;;;;;;;;;;;;;5065151;28;19923;-74
2020/12/26 16:04:01;;;;;;;;;;;;;;;;;;5067004;28;19912;-73
2020/12/26 16:06:28;;;;;;;;;;;;;;;;;;5072892;28;19920;-74
2020/12/26 16:08:54;;;;;;;;;;;;;;;;;;5056981;28;20497;-73
2020/12/26 16:11:20;;;;;;;;;;;;;;;;;;5069998;28;20003;-73
2020/12/26 16:13:46;;;;;;;;;;;;;;;;;;5073956;28;20417;-75
2020/12/26 16:16:12;;;;;;;;;;;;;;;;;;5068006;28;19998;-74
2020/12/26 16:18:38;;;;;;;;;;;;;;;;;;5069956;28;19916;-75
2020/12/26 16:21:04;;;;;;;;;;;;;;;;;;5076602;28;19955;-74
2020/12/26 16:23:30;;;;;;;;;;;;;;;;;;5071496;28;19920;-75
2020/12/26 16:25:56;;;;;;;;;;;;;;;;;;5080977;28;19966;-75
2020/12/26 16:28:22;;;;;;;;;;;;;;;;;;5068022;28;20362;-74
2020/12/26 16:30:48;;;;;;;;;;;;;;;;;;5075328;28;19943;-75
2020/12/26 16:33:14;;;;;;;;;;;;;;;;;;5062858;28;20517;-75
2020/12/26 16:35:40;;;;;;;;;;;;;;;;;;5065850;28;19924;-74